Ana Sayfa
METAR-TAF:

METAR-TAF

Havaalanları :

Tinian, Mariana Adaları, Amerika Birleşik Devletleri

Enlem: 14-59N, Boylam: 145-37E, yükseklik: 82 m

Güncel hava durumu gözlemi

Rapor saat 21:59 UTC de 55 dakika önce yapıldı.
Rüzgar doğudan 7 kt
Sıcaklık 28°C
Nem 79%
Basınç 1016 hPa
Görüş mesafesi: 11.3 km
2500 ft yükseklikte az bulutlu
6000 ft yükseklikte parçalı bulutlu
12000 ft yükseklikte parçalı bulutlu

METAR: PGWT 202159Z 08007KT 7SM FEW025 SCT060 SCT120 28/24 A2999 RMK FIRST

Saat: 08:54 (22:54 UTC)

Tahmin

Rapor saat 22:24 UTC de 30 dakika önce yapıldı.
Ayın 20'si saat 22 UTC'den ayın 21'si saat 18 UTC'ye kadar geçerli Tahmin
Rüzgar doğudan 13 kt
Görüş mesafesi: 10 km
2500 ft yükseklikte az bulutlu
6000 ft yükseklikte parçalı bulutlu

TAF: PGWT 202224Z 2022/2118 08013KT P6SM FEW025 SCT060

4.000'den fazla havaalanı için hava durumu gözlemleri ve tahminleri (METAR ve TAF raporları).

Kullanılabilir istasyonlar harita üzerinde sarı ve kırmızı noktalarla gösterilir.

İstasyonun adını görmek için fareyi noktanın üzerinde gezdirin.

Sonrasında hava gözlem ve tahminlerini görmek için tıklayın.

Haritayı değiştirmek için: yaklaştırmak için siyah artı işaretli yeşil düğmeye ve uzaklaştırmak için de eksi işaretli düğmeye hızla tıklayın; bitişik haritalar için yeşil okları kullanın.


METAR-TAF: